Time;durP1;ratioP1;P1;durP2;ratioP2;P2;SDS_P1;SDS_P2;PMS_P1;PMS_P2;Temp;Humidity;BMP_temperature;BMP_pressure;BME280_temperature;BME280_humidity;BME280_pressure;Samples;Min_cycle;Max_cycle;Signal;HPM_P1;HPM_P2
2023/09/09 00:01:51;;;;;;;0.20;0.20;;;;;;;17.39;87.88;94996.38;4991822;28;20202;-78
2023/09/09 00:04:18;;;;;;;0.10;0.10;;;;;;;17.35;88.20;95001.78;4992012;28;20210;-77
2023/09/09 00:06:46;;;;;;;0.10;0.10;;;;;;;17.37;88.17;94998.66;4991929;28;20221;-78
2023/09/09 00:09:14;;;;;;;0.20;0.20;;;;;;;17.30;88.42;94999.34;4991270;28;20260;-77
2023/09/09 00:11:41;;;;;;;0.20;0.20;;;;;;;17.18;88.99;95001.44;4990950;28;20260;-77
2023/09/09 00:14:07;;;;;;;0.22;0.22;;;;;;;17.10;89.41;95005.94;4991651;28;20221;-78
2023/09/09 00:16:35;;;;;;;0.10;0.10;;;;;;;16.98;90.05;95006.09;4991940;28;20213;-78
2023/09/09 00:19:02;;;;;;;0.10;0.10;;;;;;;16.95;90.33;95007.59;4991510;28;20316;-78
2023/09/09 00:21:29;;;;;;;0.10;0.10;;;;;;;16.88;90.87;95003.91;4991516;28;20205;-78
2023/09/09 00:23:58;;;;;;;0.20;0.20;;;;;;;16.88;91.16;95006.66;4991974;28;20220;-78
2023/09/09 00:26:27;;;;;;;0.10;0.10;;;;;;;16.86;91.27;95000.75;4991083;28;20209;-78
2023/09/09 00:28:54;;;;;;;0.15;0.15;;;;;;;16.86;91.52;94998.81;4991980;28;20212;-75
2023/09/09 00:31:21;;;;;;;0.17;0.17;;;;;;;16.88;91.39;94999.25;4991434;28;20206;-75
2023/09/09 00:33:48;;;;;;;0.20;0.20;;;;;;;16.82;91.87;95000.66;4992064;28;20550;-73
2023/09/09 00:36:15;;;;;;;0.28;0.28;;;;;;;16.76;92.07;95002.09;4991447;28;20658;-73
2023/09/09 00:38:42;;;;;;;0.50;0.50;;;;;;;16.73;92.43;94997.34;4991874;28;20229;-73
2023/09/09 00:41:14;;;;;;;0.10;0.10;;;;;;;16.69;93.16;94997.25;4991304;28;20205;-73
2023/09/09 00:43:41;;;;;;;0.10;0.10;;;;;;;16.67;93.66;95001.53;4991541;28;20297;-72
2023/09/09 00:46:08;;;;;;;0.10;0.10;;;;;;;16.60;94.53;95004.06;4991430;28;20206;-73
2023/09/09 00:48:35;;;;;;;0.20;0.20;;;;;;;16.61;95.02;95005.66;4991979;28;20307;-74
2023/09/09 00:51:02;;;;;;;0.22;0.22;;;;;;;16.60;95.70;94998.59;4991485;28;20594;-74
2023/09/09 00:53:30;;;;;;;0.22;0.22;;;;;;;16.56;95.66;94997.69;4991902;28;20585;-74
2023/09/09 00:55:57;;;;;;;0.10;0.10;;;;;;;16.48;96.33;94995.97;4991770;28;20209;-73
2023/09/09 00:58:25;;;;;;;0.30;0.30;;;;;;;16.42;97.24;94994.63;4991462;28;20542;-73
2023/09/09 01:00:52;;;;;;;0.17;0.17;;;;;;;16.39;97.39;94992.63;4991147;28;20275;-73
2023/09/09 01:03:19;;;;;;;2.28;0.45;;;;;;;16.29;97.80;94988.47;4991373;28;20662;-73
2023/09/09 01:05:46;;;;;;;0.10;0.10;;;;;;;16.22;98.39;94983.66;4991397;28;20205;-74
2023/09/09 01:08:13;;;;;;;0.10;0.10;;;;;;;16.18;98.76;94992.91;4991014;28;20259;-73
2023/09/09 01:10:40;;;;;;;0.20;0.20;;;;;;;16.13;99.11;94988.50;4991150;28;20277;-72
2023/09/09 01:13:06;;;;;;;0.10;0.10;;;;;;;16.09;99.29;94979.44;4991142;28;20317;-73
2023/09/09 01:15:35;;;;;;;0.20;0.20;;;;;;;16.07;99.60;94981.72;4991536;28;20228;-73
2023/09/09 01:18:02;;;;;;;0.10;0.10;;;;;;;16.04;99.72;94974.22;4991182;28;20238;-73
2023/09/09 01:20:36;;;;;;;0.10;0.10;;;;;;;15.96;99.80;94969.75;4991554;28;20301;-72
2023/09/09 01:23:05;;;;;;;0.20;0.20;;;;;;;15.95;99.85;94968.94;4994047;28;20539;-73
2023/09/09 01:25:30;;;;;;;0.30;0.30;;;;;;;15.92;99.98;94969.66;4995195;28;20221;-74
2023/09/09 01:27:57;;;;;;;0.20;0.20;;;;;;;15.91;100.00;94980.94;4994453;28;20718;-74
2023/09/09 01:30:24;;;;;;;0.10;0.10;;;;;;;15.90;100.00;94977.41;4994519;28;20220;-73
2023/09/09 01:32:51;;;;;;;0.20;0.20;;;;;;;15.92;100.00;94966.13;4994618;28;20201;-73
2023/09/09 01:35:18;;;;;;;0.25;0.25;;;;;;;15.97;99.73;94971.34;4994524;28;20625;-72
2023/09/09 01:37:45;;;;;;;0.15;0.15;;;;;;;16.01;99.66;94972.19;4994371;28;20202;-73
2023/09/09 01:40:14;;;;;;;0.20;0.20;;;;;;;16.00;99.88;94959.69;4994362;28;20292;-73
2023/09/09 01:42:41;;;;;;;1.20;1.05;;;;;;;15.98;100.00;94960.06;4994726;28;20237;-72
2023/09/09 01:45:08;;;;;;;0.52;0.52;;;;;;;15.97;100.00;94963.94;4994097;28;20292;-73
2023/09/09 01:47:35;;;;;;;0.20;0.20;;;;;;;15.95;100.00;94959.97;4994367;28;20567;-73
2023/09/09 01:50:03;;;;;;;0.20;0.20;;;;;;;15.92;100.00;94968.84;4994289;28;20213;-77
2023/09/09 01:52:29;;;;;;;0.57;0.52;;;;;;;15.93;100.00;94968.50;4994011;28;20210;-76
2023/09/09 01:54:56;;;;;;;0.43;0.20;;;;;;;15.97;100.00;94971.34;4994203;28;20213;-77
2023/09/09 01:57:26;;;;;;;0.17;0.17;;;;;;;15.99;100.00;94963.56;4993784;28;20217;-76
2023/09/09 01:59:54;;;;;;;0.10;0.10;;;;;;;15.97;100.00;94968.59;4994171;28;20202;-77
2023/09/09 02:02:20;;;;;;;0.90;0.40;;;;;;;15.92;100.00;94975.13;4993682;28;20244;-77
2023/09/09 02:04:47;;;;;;;0.20;0.20;;;;;;;15.84;100.00;94972.56;4994327;28;20210;-77
2023/09/09 02:07:14;;;;;;;0.10;0.10;;;;;;;15.84;100.00;94973.38;4994008;28;20237;-77
2023/09/09 02:09:41;;;;;;;0.25;0.25;;;;;;;15.84;100.00;94978.81;4994122;28;20659;-77
2023/09/09 02:12:08;;;;;;;0.20;0.20;;;;;;;15.79;100.00;94975.56;4993551;28;20248;-77
2023/09/09 02:14:36;;;;;;;0.22;0.22;;;;;;;15.75;100.00;94971.94;4993899;28;20229;-77
2023/09/09 02:17:03;;;;;;;0.10;0.10;;;;;;;15.68;100.00;94963.56;4993699;28;20283;-77
2023/09/09 02:19:30;;;;;;;0.43;0.43;;;;;;;15.60;100.00;94974.28;4993716;28;20237;-77
2023/09/09 02:21:57;;;;;;;0.30;0.30;;;;;;;15.56;100.00;94967.97;4993890;28;20622;-77
2023/09/09 02:24:24;;;;;;;0.10;0.10;;;;;;;15.50;100.00;94966.59;4993876;28;20619;-77
2023/09/09 02:26:51;;;;;;;0.20;0.20;;;;;;;15.46;100.00;94965.69;4993535;28;20236;-77
2023/09/09 02:29:18;;;;;;;0.17;0.17;;;;;;;15.45;100.00;94961.38;4993249;28;20226;-76
2023/09/09 02:31:46;;;;;;;0.20;0.20;;;;;;;15.38;100.00;94965.88;4993479;28;20213;-76
2023/09/09 02:34:13;;;;;;;0.47;0.47;;;;;;;15.33;100.00;94964.19;4992730;28;20213;-76
2023/09/09 02:36:44;;;;;;;1.90;1.58;;;;;;;15.28;100.00;94967.19;4993374;28;20210;-76
2023/09/09 02:39:11;;;;;;;3.83;2.13;;;;;;;15.23;100.00;94970.16;4993452;28;20679;-76
2023/09/09 02:41:38;;;;;;;1.60;1.40;;;;;;;15.14;100.00;94966.78;4993620;28;20276;-76
2023/09/09 02:44:05;;;;;;;0.10;0.10;;;;;;;15.10;100.00;94982.25;4993353;28;20613;-75
2023/09/09 02:46:32;;;;;;;0.43;0.43;;;;;;;15.07;100.00;94975.56;4993289;28;20209;-76
2023/09/09 02:49:00;;;;;;;0.10;0.10;;;;;;;15.03;100.00;94977.41;4993398;28;20595;-77
2023/09/09 02:51:27;;;;;;;0.10;0.10;;;;;;;14.93;100.00;94977.88;4992962;28;20205;-76
2023/09/09 02:53:54;;;;;;;0.20;0.20;;;;;;;14.81;100.00;94978.72;4993241;28;20210;-77
2023/09/09 02:56:20;;;;;;;0.10;0.10;;;;;;;14.87;100.00;94974.63;4993386;28;20209;-76
2023/09/09 02:58:47;;;;;;;0.30;0.30;;;;;;;14.98;100.00;94968.66;4993420;28;20201;-77
2023/09/09 03:01:14;;;;;;;0.38;0.38;;;;;;;14.91;100.00;94970.03;4992807;28;20209;-77
2023/09/09 03:03:41;;;;;;;0.10;0.10;;;;;;;14.95;100.00;94970.16;4992884;28;20213;-77
2023/09/09 03:06:11;;;;;;;0.30;0.30;;;;;;;14.84;100.00;94964.41;4992866;28;20228;-76
2023/09/09 03:08:38;;;;;;;0.10;0.10;;;;;;;14.88;100.00;94973.50;4993094;28;20312;-76
2023/09/09 03:11:05;;;;;;;0.30;0.30;;;;;;;14.86;100.00;94973.03;4993018;28;20205;-76
2023/09/09 03:13:31;;;;;;;0.40;0.40;;;;;;;14.82;100.00;94966.66;4992720;28;20292;-77
2023/09/09 03:15:58;;;;;;;0.20;0.20;;;;;;;14.68;100.00;94966.25;4992681;28;20205;-77
2023/09/09 03:18:25;;;;;;;0.10;0.10;;;;;;;14.66;100.00;94974.00;4992327;28;20233;-76
2023/09/09 03:20:52;;;;;;;0.20;0.20;;;;;;;14.63;100.00;94979.31;4992880;28;20202;-77
2023/09/09 03:23:20;;;;;;;0.10;0.10;;;;;;;14.70;100.00;94974.91;4992285;28;20205;-76
2023/09/09 03:25:47;;;;;;;0.40;0.40;;;;;;;14.66;100.00;94968.53;4992884;28;20279;-77
2023/09/09 03:28:14;;;;;;;0.10;0.10;;;;;;;14.55;100.00;94981.84;4992410;28;20248;-76
2023/09/09 03:30:55;;;;;;;0.20;0.20;;;;;;;14.50;100.00;94973.09;4992573;28;20209;-77
2023/09/09 03:33:21;;;;;;;0.20;0.20;;;;;;;14.44;100.00;94985.41;4992186;28;20304;-76
2023/09/09 03:35:48;;;;;;;0.13;0.13;;;;;;;14.44;100.00;94982.66;4992602;28;20305;-77
2023/09/09 03:38:15;;;;;;;0.10;0.10;;;;;;;14.40;100.00;94971.66;4992252;28;20546;-76
2023/09/09 03:40:43;;;;;;;0.10;0.10;;;;;;;14.32;100.00;94978.00;4992572;28;20626;-77
2023/09/09 03:43:10;;;;;;;0.10;0.10;;;;;;;14.34;100.00;94980.41;4991967;28;20209;-76
2023/09/09 03:45:37;;;;;;;0.50;0.50;;;;;;;14.33;100.00;94973.34;4991307;28;20305;-76
2023/09/09 03:48:05;;;;;;;0.20;0.20;;;;;;;14.33;100.00;94976.06;4992023;28;20241;-77
2023/09/09 03:50:32;;;;;;;0.10;0.10;;;;;;;14.34;100.00;94977.66;4991701;28;20205;-76
2023/09/09 03:52:58;;;;;;;0.20;0.20;;;;;;;14.30;100.00;94976.75;4991981;28;20209;-76
2023/09/09 03:55:25;;;;;;;0.22;0.22;;;;;;;14.27;100.00;94982.88;4992243;28;20750;-76
2023/09/09 03:57:53;;;;;;;0.30;0.30;;;;;;;14.29;100.00;94983.34;4992083;28;20205;-77
2023/09/09 04:00:20;;;;;;;0.15;0.15;;;;;;;14.17;100.00;94989.59;4992153;28;20209;-77
2023/09/09 04:02:47;;;;;;;0.10;0.10;;;;;;;14.19;100.00;94988.13;4992058;28;20552;-76
2023/09/09 04:05:14;;;;;;;0.40;0.40;;;;;;;14.23;100.00;94989.00;4992062;28;20217;-76
2023/09/09 04:07:43;;;;;;;0.20;0.20;;;;;;;14.27;100.00;94985.59;4992060;28;20705;-76
2023/09/09 04:10:12;;;;;;;0.20;0.20;;;;;;;14.32;100.00;94985.38;4991740;28;20304;-76
2023/09/09 04:12:39;;;;;;;0.28;0.28;;;;;;;14.40;100.00;94989.94;4991969;28;20229;-77
2023/09/09 04:15:10;;;;;;;0.47;0.47;;;;;;;14.61;100.00;94976.97;4991841;28;20209;-76
2023/09/09 04:17:38;;;;;;;0.10;0.10;;;;;;;15.04;100.00;94986.38;4991613;28;20328;-77
2023/09/09 04:20:08;;;;;;;0.10;0.10;;;;;;;15.60;98.22;94985.22;4992116;28;20302;-77
2023/09/09 04:22:35;;;;;;;0.10;0.10;;;;;;;16.38;94.28;94980.13;4991806;28;20241;-77
2023/09/09 04:25:02;;;;;;;0.10;0.10;;;;;;;16.92;89.82;94978.22;4992116;28;20210;-77
2023/09/09 04:27:28;;;;;;;0.20;0.20;;;;;;;17.85;86.14;94963.59;4991605;28;20205;-77
2023/09/09 04:29:55;;;;;;;0.20;0.20;;;;;;;18.47;81.94;94971.25;4991639;28;20299;-78
2023/09/09 04:32:24;;;;;;;0.13;0.13;;;;;;;19.16;78.52;94966.34;4991655;28;20285;-77
2023/09/09 04:34:50;;;;;;;0.10;0.10;;;;;;;19.83;76.20;94955.31;4991701;28;20214;-78
2023/09/09 04:37:18;;;;;;;0.10;0.10;;;;;;;20.42;73.34;94958.19;4991507;28;20205;-77
2023/09/09 04:39:45;;;;;;;0.20;0.20;;;;;;;20.88;71.54;94958.50;4991889;28;20201;-77
2023/09/09 04:42:12;;;;;;;0.40;0.40;;;;;;;21.60;69.81;94954.88;4991850;28;20320;-76
2023/09/09 04:44:39;;;;;;;0.20;0.20;;;;;;;21.33;68.86;94951.63;4991654;28;20213;-78
2023/09/09 04:47:06;;;;;;;1.98;1.58;;;;;;;22.28;66.47;94944.72;4991781;28;20252;-77
2023/09/09 04:49:34;;;;;;;0.10;0.10;;;;;;;22.94;64.51;94953.38;4991531;28;20606;-78
2023/09/09 04:52:01;;;;;;;0.10;0.10;;;;;;;22.50;65.36;94957.34;4991385;28;20225;-77
2023/09/09 04:54:28;;;;;;;0.20;0.20;;;;;;;22.92;63.92;94956.53;4991568;28;20578;-77
2023/09/09 04:56:54;;;;;;;0.70;0.63;;;;;;;23.13;63.14;94955.66;4992900;28;20572;-77
2023/09/09 04:59:22;;;;;;;1.35;1.20;;;;;;;23.81;61.54;94950.66;4994909;28;20300;-76
2023/09/09 05:01:48;;;;;;;1.25;1.15;;;;;;;24.31;58.98;94955.88;4995423;28;20209;-77
2023/09/09 05:04:15;;;;;;;1.88;1.33;;;;;;;24.62;58.11;94960.34;4994885;28;20217;-76
2023/09/09 05:06:43;;;;;;;1.92;1.40;;;;;;;25.53;55.74;94953.47;4995379;28;20229;-77
2023/09/09 05:09:11;;;;;;;0.38;0.38;;;;;;;25.63;54.30;94949.78;4994833;28;20246;-77
2023/09/09 05:11:38;;;;;;;1.13;0.38;;;;;;;26.29;53.03;94952.81;4995074;28;20245;-77
2023/09/09 05:14:05;;;;;;;1.75;1.52;;;;;;;26.18;53.51;94946.63;4994888;28;20240;-77
2023/09/09 05:16:32;;;;;;;1.50;1.40;;;;;;;26.40;53.02;94942.31;4994709;28;20217;-77
2023/09/09 05:18:59;;;;;;;1.92;1.30;;;;;;;27.37;50.23;94942.16;4994736;28;20237;-77
2023/09/09 05:21:26;;;;;;;5.35;2.55;;;;;;;28.17;47.93;94938.06;4994916;28;20209;-77
2023/09/09 05:23:54;;;;;;;1.70;1.10;;;;;;;28.05;47.89;94935.97;4995104;28;20260;-77
2023/09/09 05:26:21;;;;;;;2.05;0.98;;;;;;;28.46;46.88;94937.41;4994597;28;20225;-75
2023/09/09 05:28:48;;;;;;;1.50;1.20;;;;;;;28.81;46.14;94931.00;4995130;28;20392;-74
2023/09/09 05:31:15;;;;;;;1.85;1.60;;;;;;;27.75;47.21;94939.03;4994741;28;20216;-76
2023/09/09 05:33:42;;;;;;;1.58;1.35;;;;;;;28.17;47.64;94942.84;4994811;28;20210;-77
2023/09/09 05:36:09;;;;;;;2.10;1.80;;;;;;;28.94;45.80;94934.63;4994897;28;20574;-77
2023/09/09 05:38:36;;;;;;;1.63;1.25;;;;;;;29.04;44.83;94943.16;4994724;28;20658;-76
2023/09/09 05:41:04;;;;;;;2.70;1.50;;;;;;;28.93;45.30;94940.66;4994366;28;20264;-77
2023/09/09 05:43:31;;;;;;;1.02;0.85;;;;;;;28.61;45.74;94939.41;4994428;28;20567;-77
2023/09/09 05:46:00;;;;;;;3.00;1.42;;;;;;;29.13;44.76;94940.50;4994392;28;20205;-77
2023/09/09 05:48:27;;;;;;;2.42;1.48;;;;;;;28.17;46.46;94943.63;4994375;28;20590;-76
2023/09/09 05:50:55;;;;;;;1.90;1.60;;;;;;;27.51;48.27;94941.09;4994608;28;20210;-76
2023/09/09 05:53:21;;;;;;;4.13;2.45;;;;;;;28.81;45.16;94935.78;4994267;28;20217;-76
2023/09/09 05:55:48;;;;;;;1.58;1.17;;;;;;;29.52;44.33;94945.03;4994186;28;20209;-77
2023/09/09 05:58:16;;;;;;;1.73;1.48;;;;;;;29.37;44.09;94950.22;4993870;28;20210;-75
2023/09/09 06:00:43;;;;;;;1.50;1.20;;;;;;;29.61;43.77;94951.53;4993922;28;20209;-77
2023/09/09 06:03:10;;;;;;;1.67;1.48;;;;;;;29.96;43.14;94946.94;4994156;28;20205;-77
2023/09/09 06:05:37;;;;;;;2.38;1.80;;;;;;;30.12;42.85;94951.66;4993587;28;20221;-76
2023/09/09 06:08:04;;;;;;;2.63;2.08;;;;;;;28.22;46.33;94954.31;4993245;28;20205;-76
2023/09/09 06:10:31;;;;;;;3.08;1.95;;;;;;;27.66;47.64;94959.09;4993355;28;20229;-76
2023/09/09 06:12:58;;;;;;;1.48;1.17;;;;;;;28.19;47.24;94951.59;4993899;28;20272;-76
2023/09/09 06:15:26;;;;;;;1.50;1.10;;;;;;;28.00;47.35;94950.44;4993884;28;20225;-76
2023/09/09 06:17:53;;;;;;;1.23;1.10;;;;;;;29.47;43.97;94954.75;4993781;28;20238;-77
2023/09/09 06:20:20;;;;;;;2.95;2.10;;;;;;;29.44;44.59;94949.25;4993459;28;20221;-76
2023/09/09 06:22:47;;;;;;;1.88;1.50;;;;;;;29.25;43.62;94956.50;4993767;28;20230;-76
2023/09/09 06:25:14;;;;;;;1.73;1.33;;;;;;;28.85;45.13;94953.19;4993681;28;20205;-76
2023/09/09 06:27:41;;;;;;;2.20;1.60;;;;;;;29.38;43.73;94951.00;4993660;28;20205;-76
2023/09/09 06:30:08;;;;;;;2.28;1.40;;;;;;;29.89;43.48;94958.31;4993751;28;20602;-76
2023/09/09 06:32:36;;;;;;;2.90;1.42;;;;;;;29.14;44.38;94956.81;4993390;28;20797;-74
2023/09/09 06:35:05;;;;;;;2.78;1.77;;;;;;;29.23;44.85;94956.19;4994202;28;20205;-74
2023/09/09 06:37:32;;;;;;;2.28;1.50;;;;;;;28.87;45.62;94954.31;4993344;28;20304;-74
2023/09/09 06:39:58;;;;;;;1.60;1.35;;;;;;;29.67;43.39;94952.53;4993307;28;20206;-74
2023/09/09 06:42:25;;;;;;;1.73;1.30;;;;;;;30.14;42.65;94963.16;4993105;28;20671;-74
2023/09/09 06:44:52;;;;;;;1.52;1.42;;;;;;;30.35;42.33;94954.09;4993392;28;20198;-74
2023/09/09 06:47:19;;;;;;;1.88;1.50;;;;;;;29.98;43.05;94960.47;4993481;28;20209;-74
2023/09/09 06:49:48;;;;;;;1.98;1.42;;;;;;;30.89;41.37;94955.94;4993053;28;20237;-74
2023/09/09 06:52:15;;;;;;;1.88;1.65;;;;;;;29.86;43.06;94959.19;4993039;28;20637;-75
2023/09/09 06:54:43;;;;;;;2.60;2.35;;;;;;;28.10;45.88;94966.09;4993275;28;20221;-75
2023/09/09 06:57:10;;;;;;;2.40;1.67;;;;;;;27.92;46.71;94960.94;4993450;28;20639;-73
2023/09/09 06:59:37;;;;;;;1.52;1.30;;;;;;;28.79;45.94;94960.53;4993312;28;20586;-74
2023/09/09 07:02:06;;;;;;;1.50;1.23;;;;;;;29.12;44.66;94967.63;4993092;28;20312;-74
2023/09/09 07:04:33;;;;;;;1.98;1.60;;;;;;;30.01;43.11;94956.78;4992755;28;20282;-74
2023/09/09 07:07:01;;;;;;;2.45;1.23;;;;;;;28.98;44.25;94963.19;4993041;28;20237;-74
2023/09/09 07:09:28;;;;;;;2.05;1.33;;;;;;;27.99;46.82;94970.34;4992775;28;20698;-74
2023/09/09 07:11:55;;;;;;;3.15;1.48;;;;;;;28.06;46.24;94962.59;4992881;28;20222;-74
2023/09/09 07:16:35;;;;;;;1.27;1.15;;;;;;;27.41;45.22;94965.16;5141220;27;1354487;-79
2023/09/09 07:19:02;;;;;;;1.58;1.27;;;;;;;27.20;46.73;94960.00;5171389;27;20558;-79
2023/09/09 07:21:29;;;;;;;1.10;1.00;;;;;;;27.05;45.70;94969.84;5170891;27;20203;-79
2023/09/09 07:23:56;;;;;;;1.02;0.90;;;;;;;26.71;46.02;94962.44;5171099;27;20208;-79
2023/09/09 07:26:23;;;;;;;1.42;1.00;;;;;;;26.43;46.26;94965.72;5170840;27;20203;-79
2023/09/09 07:28:49;;;;;;;1.50;1.25;;;;;;;26.72;46.69;94963.25;5170842;27;20204;-79
2023/09/09 07:31:16;;;;;;;1.20;1.13;;;;;;;25.28;47.07;94973.19;5171105;27;20605;-79
2023/09/09 07:33:44;;;;;;;1.92;1.17;;;;;;;24.39;50.39;94971.25;5170818;27;20547;-78
2023/09/09 07:36:11;;;;;;;0.85;0.80;;;;;;;25.12;49.31;94979.31;5170338;27;20220;-78
2023/09/09 07:38:38;;;;;;;0.85;0.85;;;;;;;25.58;47.70;94980.72;5170541;27;20208;-79
2023/09/09 07:41:05;;;;;;;0.70;0.60;;;;;;;24.96;46.82;94979.06;5170859;27;20203;-80
2023/09/09 07:43:31;;;;;;;1.17;0.77;;;;;;;24.74;45.67;94984.78;5170304;27;20252;-77
2023/09/09 07:45:58;;;;;;;1.38;0.80;;;;;;;24.48;45.76;94979.06;5170543;27;20204;-79
2023/09/09 07:48:27;;;;;;;0.80;0.55;;;;;;;24.64;45.18;94973.78;5170322;27;20218;-80
2023/09/09 07:50:59;;;;;;;0.75;0.75;;;;;;;24.90;45.13;94975.13;5170147;27;20686;-79
2023/09/09 07:53:26;;;;;;;0.77;0.65;;;;;;;25.54;44.76;94980.00;5170497;27;20180;-79
2023/09/09 07:55:53;;;;;;;0.68;0.63;;;;;;;25.72;43.83;94975.81;5170452;27;20231;-77
2023/09/09 07:58:20;;;;;;;0.60;0.60;;;;;;;26.34;42.03;94977.34;5169955;27;20196;-79
2023/09/09 08:00:46;;;;;;;2.40;1.33;;;;;;;26.90;40.45;94969.28;5170164;27;20546;-79
2023/09/09 08:03:14;;;;;;;1.10;1.00;;;;;;;26.76;41.25;94964.75;5170380;27;20208;-79
2023/09/09 08:05:41;;;;;;;0.60;0.60;;;;;;;26.22;41.42;94969.59;5170087;27;20240;-79
2023/09/09 08:08:10;;;;;;;1.67;1.08;;;;;;;25.57;43.61;94968.84;5169746;27;20265;-80
2023/09/09 08:10:37;;;;;;;0.68;0.63;;;;;;;25.16;41.72;94966.16;5169991;27;20280;-79
2023/09/09 08:13:04;;;;;;;0.70;0.70;;;;;;;25.66;41.03;94963.63;5162634;27;20247;-78
2023/09/09 08:15:31;;;;;;;1.02;0.50;;;;;;;24.97;41.79;94975.09;5148590;27;20244;-77
2023/09/09 08:17:58;;;;;;;0.60;0.60;;;;;;;24.90;40.68;94964.03;5148979;27;20675;-77
2023/09/09 08:20:25;;;;;;;0.50;0.50;;;;;;;25.10;40.38;94963.06;5148731;27;20562;-78
2023/09/09 08:22:52;;;;;;;0.77;0.77;;;;;;;24.86;39.62;94963.31;5148598;27;20582;-80
2023/09/09 08:25:20;;;;;;;0.40;0.40;;;;;;;25.19;39.77;94959.81;5148960;27;20211;-79
2023/09/09 08:27:47;;;;;;;0.57;0.57;;;;;;;25.43;38.55;94961.50;5136192;27;20228;-80
2023/09/09 08:30:15;;;;;;;0.50;0.50;;;;;;;25.12;37.87;94959.88;5135039;27;20205;-79
2023/09/09 08:32:42;;;;;;;0.60;0.60;;;;;;;24.66;38.26;94955.56;5134531;27;20220;-80
2023/09/09 08:35:08;;;;;;;0.63;0.57;;;;;;;25.14;37.78;94951.94;5134812;27;20285;-78
2023/09/09 08:37:35;;;;;;;0.88;0.60;;;;;;;25.28;38.30;94951.00;5134873;27;20197;-80
2023/09/09 08:40:03;;;;;;;0.95;0.82;;;;;;;25.76;37.16;94948.03;5134986;27;20205;-79
2023/09/09 08:42:47;;;;;;;0.75;0.60;;;;;;;25.46;37.73;94951.56;5134565;27;20197;-78
2023/09/09 08:45:22;;;;;;;0.85;0.50;;;;;;;25.70;38.94;94952.47;5135092;27;20196;-79
2023/09/09 08:47:51;;;;;;;0.50;0.50;;;;;;;24.34;38.91;94949.50;5134499;27;20603;-78
2023/09/09 08:50:20;;;;;;;0.90;0.70;;;;;;;24.79;39.57;94941.97;5134778;27;20263;-78
2023/09/09 08:52:50;;;;;;;0.90;0.70;;;;;;;24.86;39.00;94946.69;5134274;27;20205;-78
2023/09/09 08:55:17;;;;;;;0.40;0.40;;;;;;;25.10;36.94;94940.91;5134535;27;20593;-79
2023/09/09 08:57:46;;;;;;;0.55;0.47;;;;;;;24.53;37.94;94946.19;5134517;27;20205;-79
2023/09/09 09:00:15;;;;;;;0.60;0.60;;;;;;;25.00;37.31;94947.34;5134818;27;20201;-80
2023/09/09 09:02:42;;;;;;;0.65;0.50;;;;;;;25.01;35.65;94937.03;5134384;27;20560;-79
2023/09/09 09:05:11;;;;;;;1.20;0.60;;;;;;;25.60;35.45;94939.50;5134261;27;20246;-78
2023/09/09 09:07:38;;;;;;;0.60;0.50;;;;;;;25.55;35.67;94937.97;5134074;27;20204;-79
2023/09/09 09:10:05;;;;;;;0.40;0.40;;;;;;;25.16;36.94;94943.97;5134354;27;20542;-78
2023/09/09 09:12:36;;;;;;;0.30;0.30;;;;;;;24.56;36.11;94939.84;5134103;27;20629;-77
2023/09/09 09:15:06;;;;;;;1.02;0.60;;;;;;;24.79;35.62;94936.44;5134283;27;20268;-78
2023/09/09 09:17:33;;;;;;;0.47;0.47;;;;;;;24.58;35.71;94937.44;5134072;27;20202;-79
2023/09/09 09:19:59;;;;;;;1.15;1.02;;;;;;;24.86;36.39;94941.13;5134146;27;20621;-79
2023/09/09 09:22:26;;;;;;;0.60;0.47;;;;;;;24.77;35.30;94928.53;5133767;27;20670;-79
2023/09/09 09:24:53;;;;;;;0.38;0.38;;;;;;;24.74;35.86;94934.09;5134073;27;20204;-79
2023/09/09 09:27:20;;;;;;;4.13;1.05;;;;;;;24.91;36.68;94926.81;5133715;27;20216;-80
2023/09/09 09:29:47;;;;;;;0.70;0.63;;;;;;;25.17;36.11;94933.69;5133297;27;20217;-79
2023/09/09 09:32:16;;;;;;;1.05;0.50;;;;;;;25.42;34.19;94921.06;5133840;27;20243;-77
2023/09/09 09:34:44;;;;;;;1.17;0.30;;;;;;;25.16;33.72;94932.88;5133675;27;20292;-77
2023/09/09 09:37:12;;;;;;;0.43;0.43;;;;;;;25.37;34.33;94921.56;5133626;27;20221;-77
2023/09/09 09:39:40;;;;;;;0.40;0.40;;;;;;;25.40;33.61;94926.28;5132305;27;20205;-78
2023/09/09 09:42:07;;;;;;;0.52;0.43;;;;;;;25.63;34.30;94922.03;5133564;27;20205;-79
2023/09/09 09:44:34;;;;;;;0.45;0.45;;;;;;;25.85;33.34;94906.66;5133346;27;20596;-78
2023/09/09 09:47:03;;;;;;;0.50;0.40;;;;;;;25.66;32.58;94910.91;5133563;27;20563;-78
2023/09/09 09:49:40;;;;;;;0.57;0.57;;;;;;;25.73;33.71;94910.00;5133193;27;20215;-78
2023/09/09 09:52:08;;;;;;;1.05;0.88;;;;;;;24.98;33.99;94921.22;5133182;27;20253;-77
2023/09/09 09:54:36;;;;;;;0.60;0.60;;;;;;;24.53;34.64;94912.94;5132734;27;20205;-78
2023/09/09 09:57:04;;;;;;;0.52;0.43;;;;;;;25.22;35.13;94897.97;5133651;27;20221;-79
2023/09/09 09:59:32;;;;;;;0.57;0.50;;;;;;;25.83;34.47;94893.19;5133037;27;20575;-79
2023/09/09 10:02:00;;;;;;;0.50;0.50;;;;;;;26.32;32.35;94890.09;5133525;27;20197;-78
2023/09/09 10:04:28;;;;;;;0.57;0.57;;;;;;;26.44;33.18;94886.69;5133068;27;20201;-79
2023/09/09 10:07:00;;;;;;;0.55;0.40;;;;;;;26.66;33.38;94887.88;5132982;27;20227;-78
2023/09/09 10:09:34;;;;;;;0.68;0.60;;;;;;;26.76;32.40;94886.91;5132709;27;20277;-78
2023/09/09 10:12:05;;;;;;;0.32;0.32;;;;;;;26.94;32.33;94885.81;5133202;27;20208;-78
2023/09/09 10:14:34;;;;;;;0.60;0.60;;;;;;;26.66;32.15;94887.88;5132451;27;20298;-77
2023/09/09 10:17:05;;;;;;;0.50;0.40;;;;;;;26.42;31.69;94878.00;5133376;27;20221;-79
2023/09/09 10:19:33;;;;;;;0.73;0.60;;;;;;;26.77;31.95;94871.81;5132562;27;20208;-79
2023/09/09 10:22:04;;;;;;;0.80;0.60;;;;;;;26.92;32.02;94873.06;5133373;27;20246;-79
2023/09/09 10:24:33;;;;;;;0.47;0.45;;;;;;;26.95;31.66;94874.25;5132464;27;20200;-79
2023/09/09 10:27:01;;;;;;;0.30;0.30;;;;;;;26.61;30.11;94874.47;5132994;27;20209;-78
2023/09/09 10:29:29;;;;;;;0.32;0.32;;;;;;;25.77;30.45;94872.66;5132386;27;20285;-78
2023/09/09 10:31:58;;;;;;;0.32;0.32;;;;;;;25.75;31.07;94874.28;5132971;27;20542;-79
2023/09/09 10:34:26;;;;;;;2.90;0.98;;;;;;;26.13;31.35;94864.56;5132519;27;20208;-80
2023/09/09 10:36:54;;;;;;;0.30;0.30;;;;;;;26.36;31.40;94851.91;5133003;27;20591;-79
2023/09/09 10:39:23;;;;;;;0.50;0.50;;;;;;;26.17;31.70;94856.97;5132482;27;20201;-79
2023/09/09 10:41:50;;;;;;;1.02;0.40;;;;;;;26.13;32.02;94861.78;5132213;27;20634;-79
2023/09/09 10:44:17;;;;;;;0.73;0.55;;;;;;;25.70;31.52;94860.88;5132570;27;20575;-78
2023/09/09 10:46:44;;;;;;;0.50;0.50;;;;;;;25.69;31.50;94856.56;5132177;27;20204;-79
2023/09/09 10:49:16;;;;;;;0.57;0.50;;;;;;;25.60;31.41;94856.25;5132015;27;20201;-80
2023/09/09 10:51:49;;;;;;;0.45;0.45;;;;;;;25.76;31.43;94843.34;5132307;27;20280;-79
2023/09/09 10:54:16;;;;;;;0.43;0.43;;;;;;;25.81;31.24;94845.66;5132477;27;20212;-80
2023/09/09 10:56:48;;;;;;;0.30;0.30;;;;;;;26.04;31.10;94842.09;5132049;27;20225;-80
2023/09/09 10:59:17;;;;;;;0.63;0.55;;;;;;;25.99;31.49;94839.00;5132088;27;20201;-79
2023/09/09 11:01:44;;;;;;;0.52;0.52;;;;;;;26.12;31.13;94838.00;5132161;27;20208;-79
2023/09/09 11:04:21;;;;;;;2.42;0.82;;;;;;;25.78;31.73;94851.25;5131956;27;20193;-76
2023/09/09 11:07:07;;;;;;;0.32;0.32;;;;;;;25.76;31.28;94837.00;5132287;27;20272;-79
2023/09/09 11:09:34;;;;;;;0.77;0.57;;;;;;;25.70;30.70;94833.91;5132075;27;20268;-78
2023/09/09 11:12:12;;;;;;;0.60;0.50;;;;;;;25.50;29.90;94836.56;5131894;27;20212;-77
2023/09/09 11:14:42;;;;;;;0.38;0.38;;;;;;;25.61;30.58;94830.06;5131432;28;20207;-79
2023/09/09 11:17:11;;;;;;;0.22;0.22;;;;;;;25.81;30.77;94825.44;5132111;28;20700;-79
2023/09/09 11:19:38;;;;;;;0.30;0.30;;;;;;;25.91;30.79;94832.00;5131840;28;20633;-79
2023/09/09 11:22:08;;;;;;;0.30;0.30;;;;;;;26.14;29.75;94823.69;5132117;28;20564;-79
2023/09/09 11:24:34;;;;;;;0.38;0.38;;;;;;;25.84;29.93;94819.03;5131744;28;20200;-79
2023/09/09 11:27:03;;;;;;;0.25;0.25;;;;;;;26.31;29.03;94821.84;5132073;28;20208;-77
2023/09/09 11:29:31;;;;;;;0.30;0.30;;;;;;;25.79;29.93;94825.84;5131675;28;20619;-77
2023/09/09 11:31:58;;;;;;;0.43;0.43;;;;;;;25.64;28.97;94841.16;5132359;28;20520;-77
2023/09/09 11:34:32;;;;;;;0.40;0.40;;;;;;;25.55;30.45;94820.66;5131933;28;20583;-77
2023/09/09 11:37:00;;;;;;;0.90;0.28;;;;;;;25.91;30.37;94815.34;5132194;28;20661;-77